logo
Search for airport 
image banner adimage banner adimage banner ad
image banner ad

LOAQ - Amstetten Kh

Located in District Amstetten, Austria

ICAO - , IATA -

Data provided by Airmate  

General information

Coordinates: N48°7'36" E14°52'51"
Elevation is 947 feet MSL.
 
View others Airports in Lower Austria

Operational data

Special qualification required
Current time UTC:
Current local time:
Weather at : LOWL - Linz ( 53 km )
METAR: LOWL 220350Z AUTO 23005KT 190V270 9999 FEW040CB 15/14 Q1016 NOSIG
TAF: TAF LOWL 212315Z 2200/2224 29010KT 9999 FEW040 SCT050 TX24/2213Z TN16/2224Z TEMPO 2200/2204 28016G26KT SHRA PROB30 TEMPO 2200/2204 3000 +TSRA SCT040CB BKN050 BECMG 2215/2217 VRB04KT
View NOTAMs / SUP AIP / TFR affecting this airport [VIEW]
Communications frequencies: [VIEW]

Runways:

Airport contact information

Address: District Amstetten Austria

Satellite view of LOAQ